sensor_id;sensor_type;location;lat;lon;timestamp;P1;durP1;ratioP1;P2;durP2;ratioP2
17570;SDS011;8903;52.220;20.978;2023-02-27T00:01:18;5.43;;;2.90;;
17570;SDS011;8903;52.220;20.978;2023-02-27T00:03:45;6.40;;;4.20;;
17570;SDS011;8903;52.220;20.978;2023-02-27T00:06:13;8.87;;;4.97;;
17570;SDS011;8903;52.220;20.978;2023-02-27T00:08:41;6.23;;;4.60;;
17570;SDS011;8903;52.220;20.978;2023-02-27T00:11:09;12.10;;;5.10;;
17570;SDS011;8903;52.220;20.978;2023-02-27T00:13:37;8.50;;;4.90;;
17570;SDS011;8903;52.220;20.978;2023-02-27T00:16:05;9.50;;;5.23;;
17570;SDS011;8903;52.220;20.978;2023-02-27T00:18:37;5.60;;;4.67;;
17570;SDS011;8903;52.220;20.978;2023-02-27T00:21:04;10.37;;;5.03;;
17570;SDS011;8903;52.220;20.978;2023-02-27T00:23:31;10.80;;;5.40;;
17570;SDS011;8903;52.220;20.978;2023-02-27T00:25:59;9.47;;;5.60;;
17570;SDS011;8903;52.220;20.978;2023-02-27T00:28:26;13.53;;;6.07;;
17570;SDS011;8903;52.220;20.978;2023-02-27T00:30:55;7.80;;;5.40;;
17570;SDS011;8903;52.220;20.978;2023-02-27T00:33:22;6.50;;;5.27;;
17570;SDS011;8903;52.220;20.978;2023-02-27T00:35:53;13.30;;;6.60;;
17570;SDS011;8903;52.220;20.978;2023-02-27T00:38:21;8.40;;;5.93;;
17570;SDS011;8903;52.220;20.978;2023-02-27T00:40:48;15.47;;;5.80;;
17570;SDS011;8903;52.220;20.978;2023-02-27T00:43:15;9.90;;;5.27;;
17570;SDS011;8903;52.220;20.978;2023-02-27T00:45:42;7.20;;;5.03;;
17570;SDS011;8903;52.220;20.978;2023-02-27T00:48:10;8.70;;;5.23;;
17570;SDS011;8903;52.220;20.978;2023-02-27T00:50:37;13.50;;;5.23;;
17570;SDS011;8903;52.220;20.978;2023-02-27T00:53:04;6.53;;;5.27;;
17570;SDS011;8903;52.220;20.978;2023-02-27T00:55:31;6.90;;;4.93;;
17570;SDS011;8903;52.220;20.978;2023-02-27T00:57:58;9.07;;;5.63;;
17570;SDS011;8903;52.220;20.978;2023-02-27T01:00:25;9.23;;;4.77;;
17570;SDS011;8903;52.220;20.978;2023-02-27T01:02:53;5.83;;;5.13;;
17570;SDS011;8903;52.220;20.978;2023-02-27T01:05:21;7.73;;;4.97;;
17570;SDS011;8903;52.220;20.978;2023-02-27T01:07:48;10.50;;;6.43;;
17570;SDS011;8903;52.220;20.978;2023-02-27T01:10:15;12.50;;;5.90;;
17570;SDS011;8903;52.220;20.978;2023-02-27T01:12:43;8.93;;;4.73;;
17570;SDS011;8903;52.220;20.978;2023-02-27T01:15:10;12.60;;;5.87;;
17570;SDS011;8903;52.220;20.978;2023-02-27T01:17:38;8.07;;;5.17;;
17570;SDS011;8903;52.220;20.978;2023-02-27T01:20:06;7.20;;;5.43;;
17570;SDS011;8903;52.220;20.978;2023-02-27T01:22:36;8.53;;;5.80;;
17570;SDS011;8903;52.220;20.978;2023-02-27T01:25:03;11.67;;;5.80;;
17570;SDS011;8903;52.220;20.978;2023-02-27T01:27:30;6.50;;;5.40;;
17570;SDS011;8903;52.220;20.978;2023-02-27T01:29:57;7.67;;;5.03;;
17570;SDS011;8903;52.220;20.978;2023-02-27T01:32:24;10.87;;;5.90;;
17570;SDS011;8903;52.220;20.978;2023-02-27T01:34:51;9.80;;;5.50;;
17570;SDS011;8903;52.220;20.978;2023-02-27T01:37:18;6.67;;;5.20;;
17570;SDS011;8903;52.220;20.978;2023-02-27T01:39:46;11.13;;;4.83;;
17570;SDS011;8903;52.220;20.978;2023-02-27T01:42:16;6.27;;;4.27;;
17570;SDS011;8903;52.220;20.978;2023-02-27T01:47:53;8.67;;;4.83;;
17570;SDS011;8903;52.220;20.978;2023-02-27T01:50:24;5.37;;;4.53;;
17570;SDS011;8903;52.220;20.978;2023-02-27T01:52:52;9.23;;;4.90;;
17570;SDS011;8903;52.220;20.978;2023-02-27T01:55:24;6.30;;;3.90;;
17570;SDS011;8903;52.220;20.978;2023-02-27T01:57:54;6.30;;;4.03;;
17570;SDS011;8903;52.220;20.978;2023-02-27T02:00:22;7.97;;;4.53;;
17570;SDS011;8903;52.220;20.978;2023-02-27T02:02:53;8.00;;;5.20;;
17570;SDS011;8903;52.220;20.978;2023-02-27T02:05:25;8.60;;;4.87;;
17570;SDS011;8903;52.220;20.978;2023-02-27T02:07:54;6.37;;;5.10;;
17570;SDS011;8903;52.220;20.978;2023-02-27T02:10:26;4.70;;;4.00;;
17570;SDS011;8903;52.220;20.978;2023-02-27T02:12:54;5.70;;;3.90;;
17570;SDS011;8903;52.220;20.978;2023-02-27T02:15:23;11.50;;;4.30;;
17570;SDS011;8903;52.220;20.978;2023-02-27T02:17:56;7.47;;;4.67;;
17570;SDS011;8903;52.220;20.978;2023-02-27T02:20:42;5.77;;;4.70;;
17570;SDS011;8903;52.220;20.978;2023-02-27T02:26:38;7.80;;;5.07;;
17570;SDS011;8903;52.220;20.978;2023-02-27T02:32:32;7.90;;;4.90;;
17570;SDS011;8903;52.220;20.978;2023-02-27T02:39:02;7.37;;;4.77;;
17570;SDS011;8903;52.220;20.978;2023-02-27T02:41:39;5.83;;;4.50;;
17570;SDS011;8903;52.220;20.978;2023-02-27T02:44:20;6.13;;;5.10;;
17570;SDS011;8903;52.220;20.978;2023-02-27T02:46:55;7.37;;;5.30;;
17570;SDS011;8903;52.220;20.978;2023-02-27T02:49:31;9.57;;;6.30;;
17570;SDS011;8903;52.220;20.978;2023-02-27T02:52:05;7.60;;;5.17;;
17570;SDS011;8903;52.220;20.978;2023-02-27T02:54:39;7.97;;;5.90;;
17570;SDS011;8903;52.220;20.978;2023-02-27T02:57:12;12.17;;;6.60;;
17570;SDS011;8903;52.220;20.978;2023-02-27T02:59:43;8.23;;;6.23;;
17570;SDS011;8903;52.220;20.978;2023-02-27T03:02:16;8.43;;;5.67;;
17570;SDS011;8903;52.220;20.978;2023-02-27T03:04:48;13.00;;;7.43;;
17570;SDS011;8903;52.220;20.978;2023-02-27T03:07:21;7.70;;;6.27;;
17570;SDS011;8903;52.220;20.978;2023-02-27T03:09:54;12.13;;;8.47;;
17570;SDS011;8903;52.220;20.978;2023-02-27T03:12:25;11.00;;;6.67;;
17570;SDS011;8903;52.220;20.978;2023-02-27T03:14:57;11.80;;;7.37;;
17570;SDS011;8903;52.220;20.978;2023-02-27T03:17:31;10.53;;;7.80;;
17570;SDS011;8903;52.220;20.978;2023-02-27T03:20:04;9.63;;;7.53;;
17570;SDS011;8903;52.220;20.978;2023-02-27T03:22:34;11.27;;;8.20;;
17570;SDS011;8903;52.220;20.978;2023-02-27T03:25:06;11.40;;;7.87;;
17570;SDS011;8903;52.220;20.978;2023-02-27T03:27:42;12.40;;;8.33;;
17570;SDS011;8903;52.220;20.978;2023-02-27T03:30:15;11.00;;;7.63;;
17570;SDS011;8903;52.220;20.978;2023-02-27T03:32:47;11.87;;;8.20;;
17570;SDS011;8903;52.220;20.978;2023-02-27T03:35:22;10.57;;;7.47;;
17570;SDS011;8903;52.220;20.978;2023-02-27T03:37:54;11.47;;;7.87;;
17570;SDS011;8903;52.220;20.978;2023-02-27T03:40:28;11.50;;;7.53;;
17570;SDS011;8903;52.220;20.978;2023-02-27T03:43:05;13.60;;;8.67;;
17570;SDS011;8903;52.220;20.978;2023-02-27T03:45:52;13.50;;;7.13;;
17570;SDS011;8903;52.220;20.978;2023-02-27T03:48:23;10.13;;;7.23;;
17570;SDS011;8903;52.220;20.978;2023-02-27T03:50:50;10.73;;;7.57;;
17570;SDS011;8903;52.220;20.978;2023-02-27T03:53:19;11.07;;;6.93;;
17570;SDS011;8903;52.220;20.978;2023-02-27T03:55:51;12.90;;;7.07;;
17570;SDS011;8903;52.220;20.978;2023-02-27T03:58:20;10.43;;;7.30;;
17570;SDS011;8903;52.220;20.978;2023-02-27T04:00:47;16.57;;;8.37;;
17570;SDS011;8903;52.220;20.978;2023-02-27T04:03:15;7.80;;;6.50;;
17570;SDS011;8903;52.220;20.978;2023-02-27T04:05:42;13.60;;;6.93;;
17570;SDS011;8903;52.220;20.978;2023-02-27T04:08:15;9.20;;;7.00;;
17570;SDS011;8903;52.220;20.978;2023-02-27T04:11:05;10.90;;;6.40;;
17570;SDS011;8903;52.220;20.978;2023-02-27T04:13:52;8.90;;;6.27;;
17570;SDS011;8903;52.220;20.978;2023-02-27T04:16:35;8.47;;;6.40;;
17570;SDS011;8903;52.220;20.978;2023-02-27T04:22:12;11.40;;;6.43;;
17570;SDS011;8903;52.220;20.978;2023-02-27T04:24:54;12.23;;;7.50;;
17570;SDS011;8903;52.220;20.978;2023-02-27T04:27:33;8.73;;;5.90;;
17570;SDS011;8903;52.220;20.978;2023-02-27T04:30:08;8.47;;;6.70;;
17570;SDS011;8903;52.220;20.978;2023-02-27T04:32:42;10.03;;;6.10;;
17570;SDS011;8903;52.220;20.978;2023-02-27T04:35:19;10.50;;;7.07;;
17570;SDS011;8903;52.220;20.978;2023-02-27T04:37:51;13.30;;;5.53;;
17570;SDS011;8903;52.220;20.978;2023-02-27T04:40:23;7.63;;;4.83;;
17570;SDS011;8903;52.220;20.978;2023-02-27T04:42:55;6.60;;;5.07;;
17570;SDS011;8903;52.220;20.978;2023-02-27T04:45:25;7.77;;;4.70;;
17570;SDS011;8903;52.220;20.978;2023-02-27T04:47:55;4.40;;;4.00;;
17570;SDS011;8903;52.220;20.978;2023-02-27T04:50:29;4.90;;;4.00;;
17570;SDS011;8903;52.220;20.978;2023-02-27T04:53:01;5.33;;;3.47;;
17570;SDS011;8903;52.220;20.978;2023-02-27T04:55:33;7.53;;;4.57;;
17570;SDS011;8903;52.220;20.978;2023-02-27T04:58:06;4.40;;;3.60;;
17570;SDS011;8903;52.220;20.978;2023-02-27T05:00:38;5.57;;;3.63;;
17570;SDS011;8903;52.220;20.978;2023-02-27T05:03:09;5.40;;;3.90;;
17570;SDS011;8903;52.220;20.978;2023-02-27T05:05:43;5.60;;;3.70;;
17570;SDS011;8903;52.220;20.978;2023-02-27T05:08:13;5.97;;;3.60;;
17570;SDS011;8903;52.220;20.978;2023-02-27T05:10:48;5.83;;;3.40;;
17570;SDS011;8903;52.220;20.978;2023-02-27T05:13:23;8.20;;;3.40;;
17570;SDS011;8903;52.220;20.978;2023-02-27T05:15:55;4.00;;;3.00;;
17570;SDS011;8903;52.220;20.978;2023-02-27T05:18:25;7.73;;;3.87;;
17570;SDS011;8903;52.220;20.978;2023-02-27T05:20:55;4.03;;;2.93;;
17570;SDS011;8903;52.220;20.978;2023-02-27T05:23:32;5.63;;;3.80;;
17570;SDS011;8903;52.220;20.978;2023-02-27T05:26:09;7.37;;;4.30;;
17570;SDS011;8903;52.220;20.978;2023-02-27T05:28:45;4.23;;;3.00;;
17570;SDS011;8903;52.220;20.978;2023-02-27T05:31:17;4.20;;;3.80;;
17570;SDS011;8903;52.220;20.978;2023-02-27T05:33:52;8.77;;;4.27;;
17570;SDS011;8903;52.220;20.978;2023-02-27T05:36:23;8.00;;;4.60;;
17570;SDS011;8903;52.220;20.978;2023-02-27T05:38:57;6.30;;;3.80;;
17570;SDS011;8903;52.220;20.978;2023-02-27T05:41:27;6.27;;;4.07;;
17570;SDS011;8903;52.220;20.978;2023-02-27T05:44:00;5.07;;;3.40;;
17570;SDS011;8903;52.220;20.978;2023-02-27T05:46:32;4.27;;;3.37;;
17570;SDS011;8903;52.220;20.978;2023-02-27T05:49:03;4.10;;;2.80;;
17570;SDS011;8903;52.220;20.978;2023-02-27T05:51:34;7.77;;;2.90;;
17570;SDS011;8903;52.220;20.978;2023-02-27T05:54:05;3.90;;;2.67;;
17570;SDS011;8903;52.220;20.978;2023-02-27T05:56:37;6.10;;;1.97;;
17570;SDS011;8903;52.220;20.978;2023-02-27T05:59:07;4.20;;;2.87;;
17570;SDS011;8903;52.220;20.978;2023-02-27T06:01:38;2.03;;;1.83;;
17570;SDS011;8903;52.220;20.978;2023-02-27T06:04:06;2.97;;;1.40;;
17570;SDS011;8903;52.220;20.978;2023-02-27T06:06:33;6.73;;;1.70;;
17570;SDS011;8903;52.220;20.978;2023-02-27T06:09:01;6.00;;;1.40;;
17570;SDS011;8903;52.220;20.978;2023-02-27T06:11:29;2.50;;;1.70;;
17570;SDS011;8903;52.220;20.978;2023-02-27T06:13:55;1.90;;;1.30;;
17570;SDS011;8903;52.220;20.978;2023-02-27T06:16:24;4.20;;;1.33;;
17570;SDS011;8903;52.220;20.978;2023-02-27T06:18:51;2.00;;;1.33;;
17570;SDS011;8903;52.220;20.978;2023-02-27T06:21:19;1.73;;;1.20;;
17570;SDS011;8903;52.220;20.978;2023-02-27T06:23:46;2.40;;;1.17;;
17570;SDS011;8903;52.220;20.978;2023-02-27T06:26:13;1.37;;;0.87;;
17570;SDS011;8903;52.220;20.978;2023-02-27T06:28:40;2.63;;;1.53;;
17570;SDS011;8903;52.220;20.978;2023-02-27T06:31:07;2.40;;;1.07;;
17570;SDS011;8903;52.220;20.978;2023-02-27T06:33:36;3.43;;;1.20;;
17570;SDS011;8903;52.220;20.978;2023-02-27T06:36:03;1.73;;;1.10;;
17570;SDS011;8903;52.220;20.978;2023-02-27T06:38:30;3.67;;;1.43;;
17570;SDS011;8903;52.220;20.978;2023-02-27T06:40:58;1.60;;;1.50;;
17570;SDS011;8903;52.220;20.978;2023-02-27T06:43:25;3.63;;;0.87;;
17570;SDS011;8903;52.220;20.978;2023-02-27T06:45:52;1.80;;;1.40;;
17570;SDS011;8903;52.220;20.978;2023-02-27T06:48:20;5.07;;;1.53;;
17570;SDS011;8903;52.220;20.978;2023-02-27T06:50:51;3.07;;;1.33;;
17570;SDS011;8903;52.220;20.978;2023-02-27T06:53:18;1.30;;;0.70;;
17570;SDS011;8903;52.220;20.978;2023-02-27T06:55:45;1.90;;;0.93;;
17570;SDS011;8903;52.220;20.978;2023-02-27T06:58:13;3.27;;;2.10;;
17570;SDS011;8903;52.220;20.978;2023-02-27T07:00:41;1.13;;;0.97;;
17570;SDS011;8903;52.220;20.978;2023-02-27T07:03:08;1.70;;;1.13;;
17570;SDS011;8903;52.220;20.978;2023-02-27T07:05:35;4.33;;;1.20;;
17570;SDS011;8903;52.220;20.978;2023-02-27T07:08:03;3.33;;;0.93;;
17570;SDS011;8903;52.220;20.978;2023-02-27T07:10:30;1.63;;;1.10;;
17570;SDS011;8903;52.220;20.978;2023-02-27T07:12:57;3.07;;;0.93;;
17570;SDS011;8903;52.220;20.978;2023-02-27T07:15:24;1.73;;;1.00;;
17570;SDS011;8903;52.220;20.978;2023-02-27T07:17:51;1.80;;;1.10;;
17570;SDS011;8903;52.220;20.978;2023-02-27T07:20:19;2.13;;;1.33;;
17570;SDS011;8903;52.220;20.978;2023-02-27T07:22:46;6.83;;;1.60;;
17570;SDS011;8903;52.220;20.978;2023-02-27T07:25:14;3.70;;;1.07;;
17570;SDS011;8903;52.220;20.978;2023-02-27T07:27:41;1.83;;;1.20;;
17570;SDS011;8903;52.220;20.978;2023-02-27T07:30:10;2.43;;;1.23;;
17570;SDS011;8903;52.220;20.978;2023-02-27T07:32:38;2.57;;;1.30;;
17570;SDS011;8903;52.220;20.978;2023-02-27T07:35:05;1.87;;;1.10;;
17570;SDS011;8903;52.220;20.978;2023-02-27T07:37:33;2.17;;;1.40;;
17570;SDS011;8903;52.220;20.978;2023-02-27T07:40:00;1.20;;;1.10;;
17570;SDS011;8903;52.220;20.978;2023-02-27T07:42:29;3.93;;;1.70;;
17570;SDS011;8903;52.220;20.978;2023-02-27T07:44:56;1.53;;;1.40;;
17570;SDS011;8903;52.220;20.978;2023-02-27T07:47:24;1.73;;;1.00;;
17570;SDS011;8903;52.220;20.978;2023-02-27T07:49:51;1.70;;;1.53;;
17570;SDS011;8903;52.220;20.978;2023-02-27T07:52:19;1.13;;;1.00;;
17570;SDS011;8903;52.220;20.978;2023-02-27T07:54:46;3.70;;;1.40;;
17570;SDS011;8903;52.220;20.978;2023-02-27T07:57:13;3.27;;;1.63;;
17570;SDS011;8903;52.220;20.978;2023-02-27T07:59:41;2.93;;;2.00;;
17570;SDS011;8903;52.220;20.978;2023-02-27T08:02:08;1.60;;;0.93;;
17570;SDS011;8903;52.220;20.978;2023-02-27T08:04:35;4.77;;;1.40;;
17570;SDS011;8903;52.220;20.978;2023-02-27T08:07:02;2.87;;;0.90;;
17570;SDS011;8903;52.220;20.978;2023-02-27T08:09:30;8.17;;;1.70;;
17570;SDS011;8903;52.220;20.978;2023-02-27T08:11:57;3.23;;;1.50;;
17570;SDS011;8903;52.220;20.978;2023-02-27T08:14:24;1.40;;;1.00;;
17570;SDS011;8903;52.220;20.978;2023-02-27T08:16:52;6.73;;;1.43;;
17570;SDS011;8903;52.220;20.978;2023-02-27T08:19:19;5.10;;;1.50;;
17570;SDS011;8903;52.220;20.978;2023-02-27T08:21:46;1.37;;;0.80;;
17570;SDS011;8903;52.220;20.978;2023-02-27T08:24:13;3.57;;;0.90;;
17570;SDS011;8903;52.220;20.978;2023-02-27T08:26:40;7.63;;;1.60;;
17570;SDS011;8903;52.220;20.978;2023-02-27T08:29:07;2.10;;;1.83;;
17570;SDS011;8903;52.220;20.978;2023-02-27T08:31:34;1.27;;;0.93;;
17570;SDS011;8903;52.220;20.978;2023-02-27T08:34:03;1.40;;;1.30;;
17570;SDS011;8903;52.220;20.978;2023-02-27T08:36:30;1.47;;;1.07;;
17570;SDS011;8903;52.220;20.978;2023-02-27T08:38:57;2.23;;;0.80;;
17570;SDS011;8903;52.220;20.978;2023-02-27T08:41:24;1.83;;;1.27;;
17570;SDS011;8903;52.220;20.978;2023-02-27T08:43:51;1.20;;;0.83;;
17570;SDS011;8903;52.220;20.978;2023-02-27T08:46:18;1.43;;;1.00;;
17570;SDS011;8903;52.220;20.978;2023-02-27T08:48:46;6.07;;;1.13;;
17570;SDS011;8903;52.220;20.978;2023-02-27T08:51:14;3.73;;;0.80;;
17570;SDS011;8903;52.220;20.978;2023-02-27T08:53:41;2.03;;;0.90;;
17570;SDS011;8903;52.220;20.978;2023-02-27T08:56:08;2.03;;;0.80;;
17570;SDS011;8903;52.220;20.978;2023-02-27T08:58:35;1.70;;;0.90;;
17570;SDS011;8903;52.220;20.978;2023-02-27T09:01:02;1.13;;;1.00;;
17570;SDS011;8903;52.220;20.978;2023-02-27T09:03:29;2.60;;;0.87;;
17570;SDS011;8903;52.220;20.978;2023-02-27T09:05:56;2.30;;;0.93;;
17570;SDS011;8903;52.220;20.978;2023-02-27T09:08:25;6.47;;;1.40;;
17570;SDS011;8903;52.220;20.978;2023-02-27T09:10:54;3.17;;;1.23;;
17570;SDS011;8903;52.220;20.978;2023-02-27T09:13:22;10.70;;;2.30;;
17570;SDS011;8903;52.220;20.978;2023-02-27T09:15:50;4.47;;;1.40;;
17570;SDS011;8903;52.220;20.978;2023-02-27T09:18:17;1.80;;;1.30;;
17570;SDS011;8903;52.220;20.978;2023-02-27T09:20:44;0.93;;;0.87;;
17570;SDS011;8903;52.220;20.978;2023-02-27T09:23:14;1.60;;;1.03;;
17570;SDS011;8903;52.220;20.978;2023-02-27T09:25:42;9.67;;;2.67;;
17570;SDS011;8903;52.220;20.978;2023-02-27T09:28:09;13.10;;;2.80;;
17570;SDS011;8903;52.220;20.978;2023-02-27T09:30:36;1.40;;;1.20;;
17570;SDS011;8903;52.220;20.978;2023-02-27T09:33:03;8.60;;;2.10;;
17570;SDS011;8903;52.220;20.978;2023-02-27T09:35:30;2.23;;;1.60;;
17570;SDS011;8903;52.220;20.978;2023-02-27T09:37:57;2.20;;;1.30;;
17570;SDS011;8903;52.220;20.978;2023-02-27T09:40:25;5.50;;;1.83;;
17570;SDS011;8903;52.220;20.978;2023-02-27T09:42:56;1.90;;;1.30;;
17570;SDS011;8903;52.220;20.978;2023-02-27T09:45:27;2.33;;;1.40;;
17570;SDS011;8903;52.220;20.978;2023-02-27T09:48:17;3.40;;;1.90;;
17570;SDS011;8903;52.220;20.978;2023-02-27T09:50:51;2.97;;;1.57;;
17570;SDS011;8903;52.220;20.978;2023-02-27T09:53:20;1.90;;;1.57;;
17570;SDS011;8903;52.220;20.978;2023-02-27T09:55:51;1.50;;;1.40;;
17570;SDS011;8903;52.220;20.978;2023-02-27T09:58:28;2.23;;;1.43;;
17570;SDS011;8903;52.220;20.978;2023-02-27T10:01:04;2.17;;;1.40;;
17570;SDS011;8903;52.220;20.978;2023-02-27T10:06:45;4.10;;;1.73;;
17570;SDS011;8903;52.220;20.978;2023-02-27T10:09:19;7.93;;;2.57;;
17570;SDS011;8903;52.220;20.978;2023-02-27T10:12:00;3.13;;;1.47;;
17570;SDS011;8903;52.220;20.978;2023-02-27T10:14:39;4.27;;;1.47;;
17570;SDS011;8903;52.220;20.978;2023-02-27T10:17:14;1.40;;;1.30;;
17570;SDS011;8903;52.220;20.978;2023-02-27T10:19:45;1.97;;;1.27;;
17570;SDS011;8903;52.220;20.978;2023-02-27T10:22:19;3.90;;;1.17;;
17570;SDS011;8903;52.220;20.978;2023-02-27T10:24:51;5.27;;;1.30;;
17570;SDS011;8903;52.220;20.978;2023-02-27T10:27:25;1.53;;;1.07;;
17570;SDS011;8903;52.220;20.978;2023-02-27T10:29:53;2.20;;;1.50;;
17570;SDS011;8903;52.220;20.978;2023-02-27T10:32:32;1.23;;;1.13;;
17570;SDS011;8903;52.220;20.978;2023-02-27T10:35:08;3.33;;;2.00;;
17570;SDS011;8903;52.220;20.978;2023-02-27T10:37:44;2.27;;;1.80;;
17570;SDS011;8903;52.220;20.978;2023-02-27T10:40:14;1.10;;;0.93;;
17570;SDS011;8903;52.220;20.978;2023-02-27T10:43:12;1.90;;;1.23;;
17570;SDS011;8903;52.220;20.978;2023-02-27T10:45:41;2.80;;;1.50;;
17570;SDS011;8903;52.220;20.978;2023-02-27T10:48:08;2.40;;;1.23;;
17570;SDS011;8903;52.220;20.978;2023-02-27T10:50:37;1.33;;;1.20;;
17570;SDS011;8903;52.220;20.978;2023-02-27T10:53:16;2.07;;;1.40;;
17570;SDS011;8903;52.220;20.978;2023-02-27T10:55:46;1.63;;;1.10;;
17570;SDS011;8903;52.220;20.978;2023-02-27T10:58:23;5.23;;;1.47;;
17570;SDS011;8903;52.220;20.978;2023-02-27T11:00:52;5.17;;;1.87;;
17570;SDS011;8903;52.220;20.978;2023-02-27T11:03:21;2.97;;;1.40;;
17570;SDS011;8903;52.220;20.978;2023-02-27T11:05:51;8.27;;;2.40;;
17570;SDS011;8903;52.220;20.978;2023-02-27T11:08:22;7.17;;;2.53;;
17570;SDS011;8903;52.220;20.978;2023-02-27T11:10:57;2.40;;;1.50;;
17570;SDS011;8903;52.220;20.978;2023-02-27T11:13:28;1.70;;;1.60;;
17570;SDS011;8903;52.220;20.978;2023-02-27T11:16:01;5.23;;;1.90;;
17570;SDS011;8903;52.220;20.978;2023-02-27T11:18:31;3.37;;;1.53;;
17570;SDS011;8903;52.220;20.978;2023-02-27T11:21:13;6.10;;;1.20;;
17570;SDS011;8903;52.220;20.978;2023-02-27T11:26:52;2.13;;;1.67;;
17570;SDS011;8903;52.220;20.978;2023-02-27T11:29:21;2.37;;;1.80;;
17570;SDS011;8903;52.220;20.978;2023-02-27T11:31:52;4.90;;;2.47;;
17570;SDS011;8903;52.220;20.978;2023-02-27T11:34:25;2.60;;;1.70;;
17570;SDS011;8903;52.220;20.978;2023-02-27T11:36:55;5.03;;;1.60;;
17570;SDS011;8903;52.220;20.978;2023-02-27T11:39:28;1.60;;;1.50;;
17570;SDS011;8903;52.220;20.978;2023-02-27T11:42:04;1.77;;;1.67;;
17570;SDS011;8903;52.220;20.978;2023-02-27T11:44:38;2.23;;;1.53;;
17570;SDS011;8903;52.220;20.978;2023-02-27T11:47:13;2.90;;;1.37;;
17570;SDS011;8903;52.220;20.978;2023-02-27T11:49:51;1.07;;;0.97;;
17570;SDS011;8903;52.220;20.978;2023-02-27T11:52:36;0.90;;;0.90;;
17570;SDS011;8903;52.220;20.978;2023-02-27T11:55:16;7.27;;;1.80;;
17570;SDS011;8903;52.220;20.978;2023-02-27T11:57:46;2.50;;;1.33;;
17570;SDS011;8903;52.220;20.978;2023-02-27T12:00:19;2.07;;;1.50;;
17570;SDS011;8903;52.220;20.978;2023-02-27T12:02:53;3.97;;;1.93;;
17570;SDS011;8903;52.220;20.978;2023-02-27T12:05:25;2.13;;;1.73;;
17570;SDS011;8903;52.220;20.978;2023-02-27T12:07:56;2.30;;;1.60;;
17570;SDS011;8903;52.220;20.978;2023-02-27T12:10:28;2.77;;;1.90;;
17570;SDS011;8903;52.220;20.978;2023-02-27T12:13:01;3.03;;;1.97;;
17570;SDS011;8903;52.220;20.978;2023-02-27T12:15:31;2.97;;;2.03;;
17570;SDS011;8903;52.220;20.978;2023-02-27T12:18:04;2.10;;;1.63;;
17570;SDS011;8903;52.220;20.978;2023-02-27T12:20:40;2.63;;;1.30;;
17570;SDS011;8903;52.220;20.978;2023-02-27T12:23:17;5.30;;;1.97;;
17570;SDS011;8903;52.220;20.978;2023-02-27T12:25:51;4.73;;;1.77;;
17570;SDS011;8903;52.220;20.978;2023-02-27T12:28:25;4.50;;;1.80;;
17570;SDS011;8903;52.220;20.978;2023-02-27T12:31:04;4.70;;;2.53;;
17570;SDS011;8903;52.220;20.978;2023-02-27T12:33:40;3.10;;;2.10;;
17570;SDS011;8903;52.220;20.978;2023-02-27T12:36:12;4.90;;;1.60;;
17570;SDS011;8903;52.220;20.978;2023-02-27T12:38:39;4.57;;;3.90;;
17570;SDS011;8903;52.220;20.978;2023-02-27T12:41:17;1.40;;;1.30;;
17570;SDS011;8903;52.220;20.978;2023-02-27T12:44:03;4.63;;;2.00;;
17570;SDS011;8903;52.220;20.978;2023-02-27T12:46:50;4.50;;;1.97;;
17570;SDS011;8903;52.220;20.978;2023-02-27T12:49:28;7.57;;;2.03;;
17570;SDS011;8903;52.220;20.978;2023-02-27T12:52:07;7.73;;;2.33;;
17570;SDS011;8903;52.220;20.978;2023-02-27T12:54:45;2.60;;;2.30;;
17570;SDS011;8903;52.220;20.978;2023-02-27T12:57:38;2.20;;;2.00;;
17570;SDS011;8903;52.220;20.978;2023-02-27T13:00:25;3.00;;;2.63;;
17570;SDS011;8903;52.220;20.978;2023-02-27T13:02:59;3.03;;;2.43;;
17570;SDS011;8903;52.220;20.978;2023-02-27T13:05:35;6.73;;;3.57;;
17570;SDS011;8903;52.220;20.978;2023-02-27T13:08:20;4.30;;;1.77;;
17570;SDS011;8903;52.220;20.978;2023-02-27T13:10:57;4.37;;;2.00;;
17570;SDS011;8903;52.220;20.978;2023-02-27T13:13:30;2.63;;;2.23;;
17570;SDS011;8903;52.220;20.978;2023-02-27T13:16:04;5.87;;;2.63;;
17570;SDS011;8903;52.220;20.978;2023-02-27T13:18:39;2.57;;;1.83;;
17570;SDS011;8903;52.220;20.978;2023-02-27T13:21:11;4.30;;;1.60;;
17570;SDS011;8903;52.220;20.978;2023-02-27T13:23:43;4.13;;;2.00;;
17570;SDS011;8903;52.220;20.978;2023-02-27T13:26:23;3.83;;;2.53;;
17570;SDS011;8903;52.220;20.978;2023-02-27T13:28:54;3.13;;;2.23;;
17570;SDS011;8903;52.220;20.978;2023-02-27T13:31:27;5.43;;;2.60;;
17570;SDS011;8903;52.220;20.978;2023-02-27T13:34:11;7.93;;;2.83;;
17570;SDS011;8903;52.220;20.978;2023-02-27T13:36:43;6.20;;;2.30;;
17570;SDS011;8903;52.220;20.978;2023-02-27T13:48:37;27.27;;;5.17;;
17570;SDS011;8903;52.220;20.978;2023-02-27T13:51:10;27.63;;;4.40;;
17570;SDS011;8903;52.220;20.978;2023-02-27T13:54:14;5.40;;;3.13;;
17570;SDS011;8903;52.220;20.978;2023-02-27T13:56:48;7.47;;;1.87;;
17570;SDS011;8903;52.220;20.978;2023-02-27T13:59:17;4.57;;;2.60;;
17570;SDS011;8903;52.220;20.978;2023-02-27T14:01:48;4.27;;;3.20;;
17570;SDS011;8903;52.220;20.978;2023-02-27T14:04:20;1.83;;;1.70;;
17570;SDS011;8903;52.220;20.978;2023-02-27T14:06:49;6.73;;;3.10;;
17570;SDS011;8903;52.220;20.978;2023-02-27T14:09:22;4.83;;;2.73;;
17570;SDS011;8903;52.220;20.978;2023-02-27T14:11:51;5.17;;;2.77;;
17570;SDS011;8903;52.220;20.978;2023-02-27T14:14:37;4.17;;;2.13;;
17570;SDS011;8903;52.220;20.978;2023-02-27T14:17:10;1.90;;;1.77;;
17570;SDS011;8903;52.220;20.978;2023-02-27T14:19:44;5.20;;;2.80;;
17570;SDS011;8903;52.220;20.978;2023-02-27T14:22:27;4.37;;;2.03;;
17570;SDS011;8903;52.220;20.978;2023-02-27T14:27:58;6.60;;;2.90;;
17570;SDS011;8903;52.220;20.978;2023-02-27T14:30:37;3.30;;;2.60;;
17570;SDS011;8903;52.220;20.978;2023-02-27T14:33:13;7.07;;;2.50;;
17570;SDS011;8903;52.220;20.978;2023-02-27T14:35:49;3.13;;;2.87;;
17570;SDS011;8903;52.220;20.978;2023-02-27T14:38:21;17.07;;;3.53;;
17570;SDS011;8903;52.220;20.978;2023-02-27T14:43:40;13.53;;;3.63;;
17570;SDS011;8903;52.220;20.978;2023-02-27T14:46:12;2.90;;;2.10;;
17570;SDS011;8903;52.220;20.978;2023-02-27T14:48:45;3.43;;;2.30;;
17570;SDS011;8903;52.220;20.978;2023-02-27T14:51:19;3.10;;;2.43;;
17570;SDS011;8903;52.220;20.978;2023-02-27T14:53:56;2.20;;;2.00;;
17570;SDS011;8903;52.220;20.978;2023-02-27T14:56:25;5.23;;;2.50;;
17570;SDS011;8903;52.220;20.978;2023-02-27T14:58:52;2.47;;;2.27;;
17570;SDS011;8903;52.220;20.978;2023-02-27T15:01:21;17.20;;;2.60;;
17570;SDS011;8903;52.220;20.978;2023-02-27T15:03:49;3.17;;;2.60;;
17570;SDS011;8903;52.220;20.978;2023-02-27T15:06:21;5.53;;;2.77;;
17570;SDS011;8903;52.220;20.978;2023-02-27T15:08:53;6.70;;;3.20;;
17570;SDS011;8903;52.220;20.978;2023-02-27T15:11:22;3.93;;;2.13;;
17570;SDS011;8903;52.220;20.978;2023-02-27T15:13:52;2.93;;;2.63;;
17570;SDS011;8903;52.220;20.978;2023-02-27T15:16:30;7.13;;;3.43;;
17570;SDS011;8903;52.220;20.978;2023-02-27T15:19:13;9.70;;;3.10;;
17570;SDS011;8903;52.220;20.978;2023-02-27T15:21:44;6.60;;;3.97;;
17570;SDS011;8903;52.220;20.978;2023-02-27T15:24:25;5.73;;;3.43;;
17570;SDS011;8903;52.220;20.978;2023-02-27T15:26:55;8.27;;;3.10;;
17570;SDS011;8903;52.220;20.978;2023-02-27T15:29:29;9.20;;;3.87;;
17570;SDS011;8903;52.220;20.978;2023-02-27T15:32:00;3.80;;;2.80;;
17570;SDS011;8903;52.220;20.978;2023-02-27T15:34:27;4.07;;;3.03;;
17570;SDS011;8903;52.220;20.978;2023-02-27T15:36:57;4.33;;;2.90;;
17570;SDS011;8903;52.220;20.978;2023-02-27T15:39:25;5.60;;;2.63;;
17570;SDS011;8903;52.220;20.978;2023-02-27T15:41:55;9.20;;;3.60;;
17570;SDS011;8903;52.220;20.978;2023-02-27T15:44:27;7.37;;;3.23;;
17570;SDS011;8903;52.220;20.978;2023-02-27T15:46:58;3.93;;;2.60;;
17570;SDS011;8903;52.220;20.978;2023-02-27T15:49:25;5.27;;;2.80;;